createdAt,value
2022-10-13T00:00:15.861Z,32.40
2022-10-13T00:01:15.930Z,28.40
2022-10-13T00:02:16.244Z,30.50
2022-10-13T00:03:15.801Z,32.30
2022-10-13T00:04:15.825Z,24.30
2022-10-13T00:05:15.783Z,31.90
2022-10-13T00:06:15.793Z,28.50
2022-10-13T00:07:15.764Z,26.20
2022-10-13T00:08:15.776Z,26.20
2022-10-13T00:09:15.722Z,27.20
2022-10-13T00:10:15.725Z,24.50
2022-10-13T00:11:15.716Z,26.20
2022-10-13T00:12:16.007Z,28.20
2022-10-13T00:13:15.715Z,26.80
2022-10-13T00:14:15.791Z,28.20
2022-10-13T00:15:15.663Z,28.50
2022-10-13T00:16:15.668Z,26.40
2022-10-13T00:17:15.644Z,28.20
2022-10-13T00:18:15.628Z,25.40
2022-10-13T00:19:15.616Z,29.00
2022-10-13T00:20:15.714Z,26.90
2022-10-13T00:21:15.599Z,29.10
2022-10-13T00:22:15.908Z,27.90
2022-10-13T00:23:15.557Z,28.40
2022-10-13T00:24:15.547Z,29.20
2022-10-13T00:25:15.548Z,28.10
2022-10-13T00:26:15.546Z,30.60
2022-10-13T00:27:15.496Z,29.90
2022-10-13T00:28:15.533Z,33.60
2022-10-13T00:29:15.487Z,36.00
2022-10-13T00:30:15.473Z,27.40
2022-10-13T00:31:15.450Z,29.50
2022-10-13T00:32:15.759Z,36.20
2022-10-13T00:33:15.431Z,57.60
2022-10-13T00:34:15.409Z,63.80
2022-10-13T00:35:15.389Z,29.20
2022-10-13T00:36:15.372Z,30.10
2022-10-13T00:37:15.376Z,29.00
2022-10-13T00:38:15.493Z,44.40
2022-10-13T00:39:15.343Z,92.90
2022-10-13T00:40:15.318Z,64.50
2022-10-13T00:41:15.299Z,31.20
2022-10-13T00:42:15.342Z,30.90
2022-10-13T00:43:15.313Z,31.70
2022-10-13T00:44:15.292Z,29.90
2022-10-13T00:45:15.264Z,30.40
2022-10-13T00:46:15.243Z,33.20
2022-10-13T00:47:15.242Z,30.90
2022-10-13T00:48:15.236Z,31.00
2022-10-13T00:49:15.212Z,31.60
2022-10-13T00:50:15.217Z,32.60
2022-10-13T00:51:15.197Z,33.70
2022-10-13T00:52:15.273Z,34.50
2022-10-13T00:53:15.156Z,32.90
2022-10-13T00:54:15.124Z,33.70
2022-10-13T00:55:15.124Z,30.30
2022-10-13T00:56:15.237Z,32.70
2022-10-13T00:57:15.117Z,30.30
2022-10-13T00:58:15.074Z,33.00
2022-10-13T00:59:15.074Z,45.70
2022-10-13T01:00:15.077Z,52.30
2022-10-13T01:01:15.072Z,38.90
2022-10-13T01:02:15.169Z,34.70
2022-10-13T01:03:15.028Z,33.80
2022-10-13T01:04:14.994Z,35.20
2022-10-13T01:05:14.999Z,36.50
2022-10-13T01:06:14.966Z,39.10
2022-10-13T01:07:14.959Z,35.00
2022-10-13T01:08:15.090Z,35.30
2022-10-13T01:09:14.926Z,36.50
2022-10-13T01:10:14.930Z,38.70
2022-10-13T01:11:14.921Z,32.10
2022-10-13T01:12:14.898Z,36.90
2022-10-13T01:13:14.880Z,37.80
2022-10-13T01:14:14.959Z,33.20
2022-10-13T01:15:14.847Z,32.60
2022-10-13T01:16:14.839Z,35.00
2022-10-13T01:17:14.812Z,35.80
2022-10-13T01:18:14.804Z,36.40
2022-10-13T01:19:14.803Z,39.00
2022-10-13T01:20:14.800Z,36.20
2022-10-13T01:21:14.774Z,35.60
2022-10-13T01:22:14.751Z,36.60
2022-10-13T01:23:14.738Z,34.10
2022-10-13T01:24:14.723Z,33.00
2022-10-13T01:25:14.702Z,37.40
2022-10-13T01:26:14.825Z,35.80
2022-10-13T01:27:14.702Z,36.90
2022-10-13T01:28:14.757Z,36.20
2022-10-13T01:29:14.651Z,41.80
2022-10-13T01:30:14.646Z,35.10
2022-10-13T01:31:14.644Z,37.30
2022-10-13T01:32:14.644Z,39.80
2022-10-13T01:33:14.615Z,52.00
2022-10-13T01:34:14.573Z,54.00
2022-10-13T01:35:14.577Z,53.80
2022-10-13T01:36:14.568Z,39.30
2022-10-13T01:37:14.546Z,37.50
2022-10-13T01:38:14.649Z,38.30
2022-10-13T01:39:14.538Z,39.10
2022-10-13T01:40:14.494Z,38.60
2022-10-13T01:41:14.505Z,34.70
2022-10-13T01:42:14.485Z,38.30
2022-10-13T01:43:14.467Z,36.60
2022-10-13T01:44:14.489Z,40.00
2022-10-13T01:45:14.449Z,43.00
2022-10-13T01:46:14.415Z,39.90
2022-10-13T01:47:14.406Z,43.20
2022-10-13T01:48:14.408Z,43.00
2022-10-13T01:49:14.386Z,38.40
2022-10-13T01:50:14.411Z,41.00
2022-10-13T01:51:14.370Z,38.60
2022-10-13T01:52:14.348Z,42.50
2022-10-13T01:53:14.342Z,41.40
2022-10-13T01:54:14.308Z,41.10
2022-10-13T01:55:14.298Z,43.30
2022-10-13T01:56:14.422Z,43.00
2022-10-13T01:57:14.278Z,44.20
2022-10-13T01:58:14.274Z,43.70
2022-10-13T01:59:14.268Z,45.90
2022-10-13T02:00:14.229Z,41.00
2022-10-13T02:01:14.228Z,44.30
2022-10-13T02:02:14.342Z,43.90
2022-10-13T02:03:14.211Z,42.30
2022-10-13T02:04:14.182Z,43.20
2022-10-13T02:05:14.185Z,35.80
2022-10-13T02:06:14.151Z,45.90
2022-10-13T02:07:14.144Z,42.80
2022-10-13T02:08:14.245Z,46.00
2022-10-13T02:09:14.120Z,44.30
2022-10-13T02:10:14.113Z,47.10
2022-10-13T02:11:14.104Z,48.10
2022-10-13T02:12:14.083Z,45.20
2022-10-13T02:13:14.076Z,47.70
2022-10-13T02:14:14.154Z,40.70
2022-10-13T02:15:14.033Z,42.30
2022-10-13T02:16:14.027Z,46.00
2022-10-13T02:17:14.003Z,46.30
2022-10-13T02:18:14.009Z,47.70
2022-10-13T02:19:13.996Z,52.10
2022-10-13T02:20:13.992Z,47.90
2022-10-13T02:21:13.968Z,54.00
2022-10-13T02:22:13.934Z,56.80
2022-10-13T02:23:13.925Z,56.80
2022-10-13T02:24:13.929Z,60.30
2022-10-13T02:25:13.904Z,44.90
2022-10-13T02:26:13.935Z,45.90
2022-10-13T02:27:13.890Z,53.50
2022-10-13T02:28:13.908Z,43.70
2022-10-13T02:29:13.867Z,47.70
2022-10-13T02:30:13.836Z,52.10
2022-10-13T02:31:13.825Z,50.00
2022-10-13T02:32:13.841Z,48.70
2022-10-13T02:33:13.811Z,49.10
2022-10-13T02:34:13.777Z,50.50
2022-10-13T02:35:13.768Z,49.50
2022-10-13T02:36:13.762Z,51.40
2022-10-13T02:37:13.739Z,46.90
2022-10-13T02:38:13.765Z,49.10
2022-10-13T02:39:13.732Z,49.00
2022-10-13T02:40:13.705Z,47.10
2022-10-13T02:41:13.703Z,45.70
2022-10-13T02:42:13.669Z,48.30
2022-10-13T02:43:13.662Z,48.50
2022-10-13T02:44:13.686Z,49.80
2022-10-13T02:45:13.639Z,49.90
2022-10-13T02:46:13.634Z,56.10
2022-10-13T02:47:13.624Z,49.10
2022-10-13T02:48:13.592Z,46.50
2022-10-13T02:49:13.582Z,50.20
2022-10-13T02:50:13.606Z,48.30
2022-10-13T02:51:13.565Z,49.70
2022-10-13T02:52:13.537Z,58.30
2022-10-13T02:53:13.555Z,52.40
2022-10-13T02:55:35.791Z,54.90
2022-10-13T02:56:35.759Z,55.90
2022-10-13T02:57:35.734Z,65.60
2022-10-13T02:58:35.714Z,70.30
2022-10-13T02:59:35.721Z,67.60
2022-10-13T03:00:35.709Z,61.30
2022-10-13T03:01:35.822Z,53.90
2022-10-13T03:02:35.669Z,56.70
2022-10-13T03:03:35.655Z,53.10
2022-10-13T03:04:35.650Z,55.00
2022-10-13T03:05:35.627Z,53.80
2022-10-13T03:06:35.617Z,57.30
2022-10-13T03:07:35.733Z,57.50
2022-10-13T03:08:35.601Z,52.20
2022-10-13T03:09:35.577Z,54.60
2022-10-13T03:10:35.558Z,59.70
2022-10-13T03:11:35.563Z,56.50
2022-10-13T03:12:35.528Z,61.90
2022-10-13T03:13:35.650Z,66.30
2022-10-13T03:14:35.521Z,63.40
2022-10-13T03:15:35.506Z,60.40
2022-10-13T03:16:35.493Z,59.80
2022-10-13T03:17:35.470Z,70.20
2022-10-13T03:18:35.461Z,58.00
2022-10-13T03:19:35.571Z,63.90
2022-10-13T03:20:35.431Z,60.00
2022-10-13T03:21:35.433Z,62.90
2022-10-13T03:22:35.413Z,67.30
2022-10-13T03:23:35.390Z,64.40
2022-10-13T03:24:35.385Z,63.90
2022-10-13T03:25:35.529Z,64.00
2022-10-13T03:26:35.343Z,65.80
2022-10-13T03:27:35.353Z,65.80
2022-10-13T03:28:35.389Z,63.30
2022-10-13T03:29:35.332Z,63.60
2022-10-13T03:30:35.307Z,71.10
2022-10-13T03:31:35.313Z,69.00
2022-10-13T03:32:35.277Z,67.10
2022-10-13T03:33:35.260Z,68.10
2022-10-13T03:34:35.245Z,69.70
2022-10-13T03:35:35.247Z,67.50
2022-10-13T03:36:35.214Z,67.70
2022-10-13T03:37:35.337Z,68.80
2022-10-13T03:38:35.209Z,65.80
2022-10-13T03:39:35.185Z,62.00
2022-10-13T03:40:35.165Z,69.00
2022-10-13T03:41:35.169Z,62.00
2022-10-13T03:42:35.149Z,61.50
2022-10-13T03:43:35.157Z,62.00
2022-10-13T03:44:35.129Z,67.10
2022-10-13T03:45:35.097Z,65.80
2022-10-13T03:46:35.087Z,64.60
2022-10-13T03:47:35.090Z,64.50
2022-10-13T03:48:35.068Z,62.70
2022-10-13T03:49:35.091Z,71.60
2022-10-13T03:50:35.043Z,68.40
2022-10-13T03:51:35.033Z,69.50
2022-10-13T03:52:35.022Z,75.90
2022-10-13T03:53:34.998Z,68.50
2022-10-13T03:54:34.978Z,64.60
2022-10-13T03:55:35.003Z,65.70
2022-10-13T03:56:34.964Z,67.10
2022-10-13T03:57:34.940Z,70.40
2022-10-13T03:58:34.933Z,68.90
2022-10-13T03:59:36.920Z,69.60
2022-10-13T04:00:34.899Z,64.60
2022-10-13T04:01:34.957Z,68.60
2022-10-13T04:02:34.885Z,67.00
2022-10-13T04:03:34.861Z,69.90
2022-10-13T04:04:34.857Z,68.00
2022-10-13T04:05:34.833Z,75.50
2022-10-13T04:06:34.813Z,67.80
2022-10-13T04:07:34.859Z,72.70
2022-10-13T04:08:34.800Z,70.10
2022-10-13T04:09:34.796Z,71.80
2022-10-13T04:10:34.777Z,71.70
2022-10-13T04:11:34.754Z,69.10
2022-10-13T04:12:34.734Z,70.20
2022-10-13T04:13:34.859Z,70.60
2022-10-13T04:14:34.720Z,66.90
2022-10-13T04:15:34.705Z,80.10
2022-10-13T04:16:34.699Z,72.80
2022-10-13T04:17:34.675Z,72.20
2022-10-13T04:18:34.665Z,65.00
2022-10-13T04:19:34.778Z,62.00
2022-10-13T04:20:34.626Z,62.10
2022-10-13T04:21:34.639Z,71.50
2022-10-13T04:22:34.619Z,68.80
2022-10-13T04:23:34.596Z,71.80
2022-10-13T04:24:34.591Z,69.20
2022-10-13T04:25:34.679Z,68.30
2022-10-13T04:26:34.548Z,70.00
2022-10-13T04:27:34.560Z,71.00
2022-10-13T04:28:34.554Z,66.30
2022-10-13T04:29:34.521Z,72.70
2022-10-13T04:30:34.524Z,65.30
2022-10-13T04:31:34.524Z,66.00
2022-10-13T04:32:34.491Z,68.20
2022-10-13T04:33:34.460Z,66.20
2022-10-13T04:34:34.450Z,67.00
2022-10-13T04:35:34.443Z,64.00
2022-10-13T04:36:34.420Z,62.90
2022-10-13T04:37:34.453Z,66.40
2022-10-13T04:38:34.414Z,61.80
2022-10-13T04:39:34.381Z,66.20
2022-10-13T04:40:34.394Z,61.90
2022-10-13T04:41:34.351Z,57.70
2022-10-13T04:42:34.360Z,62.70
2022-10-13T04:43:34.464Z,62.70
2022-10-13T04:44:34.336Z,62.50
2022-10-13T04:45:34.302Z,67.20
2022-10-13T04:46:34.303Z,59.30
2022-10-13T04:47:36.995Z,61.80
2022-10-13T04:48:38.273Z,60.30
2022-10-13T04:49:34.277Z,63.20
2022-10-13T04:50:34.258Z,63.90
2022-10-13T04:51:34.213Z,65.40
2022-10-13T04:52:34.239Z,71.30
2022-10-13T04:53:34.185Z,67.70
2022-10-13T04:54:34.186Z,69.80
2022-10-13T04:55:34.279Z,60.50
2022-10-13T04:56:34.155Z,64.80
2022-10-13T04:57:34.149Z,60.60
2022-10-13T04:58:34.152Z,68.20
2022-10-13T04:59:34.107Z,67.00
2022-10-13T05:00:34.156Z,63.60
2022-10-13T05:01:34.203Z,62.10
2022-10-13T05:02:34.089Z,68.30
2022-10-13T05:03:34.057Z,63.30
2022-10-13T05:04:34.061Z,70.50
2022-10-13T05:05:34.028Z,63.10
2022-10-13T05:06:34.018Z,62.20
2022-10-13T05:07:34.042Z,62.40
2022-10-13T05:08:34.087Z,64.50
2022-10-13T05:09:33.982Z,63.20
2022-10-13T05:10:34.869Z,57.80
2022-10-13T05:11:33.951Z,57.50
2022-10-13T05:12:33.953Z,54.50
2022-10-13T05:13:33.956Z,55.40
2022-10-13T05:14:33.910Z,56.90
2022-10-13T05:15:33.905Z,57.70
2022-10-13T05:16:33.903Z,56.40
2022-10-13T05:17:35.472Z,56.70
2022-10-13T05:18:33.862Z,59.00
2022-10-13T05:19:33.988Z,54.50
2022-10-13T05:20:33.832Z,58.30
2022-10-13T05:21:33.827Z,53.10
2022-10-13T05:22:33.816Z,52.70
2022-10-13T05:23:33.787Z,57.50
2022-10-13T05:24:33.795Z,52.70
2022-10-13T05:25:34.084Z,58.10
2022-10-13T05:26:33.756Z,56.70
2022-10-13T05:27:33.751Z,54.80
2022-10-13T05:28:33.760Z,54.40
2022-10-13T05:29:33.727Z,55.00
2022-10-13T05:30:33.716Z,56.50
2022-10-13T05:31:33.705Z,52.90
2022-10-13T05:32:33.687Z,56.20
2022-10-13T05:33:33.656Z,56.00
2022-10-13T05:34:33.646Z,53.40
2022-10-13T05:35:33.640Z,54.90
2022-10-13T05:36:33.620Z,54.00
2022-10-13T05:37:33.641Z,53.90
2022-10-13T05:38:33.610Z,57.90
2022-10-13T05:39:33.567Z,52.60
2022-10-13T05:40:33.580Z,55.70
2022-10-13T05:41:33.548Z,55.50
2022-10-13T05:42:33.538Z,53.30
2022-10-13T05:43:33.651Z,52.30
2022-10-13T05:44:33.508Z,51.50
2022-10-13T05:45:33.519Z,56.30
2022-10-13T05:46:33.501Z,52.70
2022-10-13T05:47:33.469Z,52.20
2022-10-13T05:48:33.459Z,48.50
2022-10-13T05:49:33.563Z,53.00
2022-10-13T05:50:33.443Z,49.50
2022-10-13T05:51:33.420Z,48.20
2022-10-13T05:52:33.422Z,49.90
2022-10-13T05:53:33.382Z,47.60
2022-10-13T05:54:33.381Z,47.70
2022-10-13T05:55:33.484Z,51.20
2022-10-13T05:56:33.356Z,46.70
2022-10-13T05:57:33.345Z,54.50
2022-10-13T05:58:33.345Z,53.00
2022-10-13T05:59:33.304Z,50.50
2022-10-13T06:00:33.316Z,52.00
2022-10-13T06:01:33.416Z,57.70
2022-10-13T06:02:33.273Z,50.50
2022-10-13T06:03:33.267Z,50.10
2022-10-13T06:04:33.259Z,50.30
2022-10-13T06:05:33.226Z,48.30
2022-10-13T06:06:33.226Z,50.10
2022-10-13T06:07:33.247Z,49.90
2022-10-13T06:08:33.196Z,45.80
2022-10-13T06:09:33.191Z,49.90
2022-10-13T06:10:33.180Z,46.80
2022-10-13T06:11:33.145Z,46.50
2022-10-13T06:12:33.150Z,48.00
2022-10-13T06:13:33.237Z,46.40
2022-10-13T06:14:33.116Z,46.70
2022-10-13T06:15:33.109Z,46.70
2022-10-13T06:16:33.087Z,48.20
2022-10-13T06:17:33.081Z,43.00
2022-10-13T06:18:33.100Z,49.40
2022-10-13T06:19:33.178Z,46.40
2022-10-13T06:20:33.037Z,49.10
2022-10-13T06:21:33.031Z,49.40
2022-10-13T06:22:33.022Z,47.00
2022-10-13T06:23:32.988Z,46.30
2022-10-13T06:24:33.000Z,51.30
2022-10-13T06:25:32.989Z,48.50
2022-10-13T06:26:32.960Z,47.50
2022-10-13T06:27:32.953Z,48.10
2022-10-13T06:28:32.980Z,48.20
2022-10-13T06:29:32.924Z,49.10
2022-10-13T06:30:32.915Z,47.20
2022-10-13T06:31:32.920Z,45.50
2022-10-13T06:32:32.898Z,44.10
2022-10-13T06:33:32.862Z,49.60
2022-10-13T06:34:32.851Z,43.10
2022-10-13T06:35:32.845Z,47.20
2022-10-13T06:36:32.822Z,45.70
2022-10-13T06:37:32.974Z,45.70
2022-10-13T06:38:32.817Z,43.40
2022-10-13T06:39:32.782Z,43.30
2022-10-13T06:40:32.787Z,49.50
2022-10-13T06:41:32.753Z,44.10
2022-10-13T06:42:32.744Z,44.00
2022-10-13T06:43:39.713Z,46.50
2022-10-13T06:44:33.722Z,42.60
2022-10-13T06:45:32.720Z,44.30
2022-10-13T06:46:32.710Z,41.20
2022-10-13T06:47:32.676Z,45.70
2022-10-13T06:48:32.688Z,44.10
2022-10-13T06:49:32.786Z,43.60
2022-10-13T06:50:32.643Z,45.80
2022-10-13T06:51:32.648Z,42.10
2022-10-13T06:52:32.630Z,42.20
2022-10-13T06:53:32.598Z,47.00
2022-10-13T06:54:32.587Z,41.80
2022-10-13T06:55:32.691Z,44.60
2022-10-13T06:56:32.566Z,40.80
2022-10-13T06:57:32.561Z,42.90
2022-10-13T06:58:32.561Z,39.30
2022-10-13T06:59:32.521Z,40.40
2022-10-13T07:00:32.586Z,44.70
2022-10-13T07:01:32.609Z,43.40
2022-10-13T07:02:32.479Z,47.00
2022-10-13T07:03:32.483Z,41.80
2022-10-13T07:04:32.461Z,42.50
2022-10-13T07:05:32.454Z,41.30
2022-10-13T07:06:32.445Z,41.00
2022-10-13T07:07:32.445Z,38.50
2022-10-13T07:08:32.413Z,39.90
2022-10-13T07:09:32.406Z,38.80
2022-10-13T07:10:32.396Z,40.00
2022-10-13T07:11:32.363Z,44.00
2022-10-13T07:12:32.366Z,42.30
2022-10-13T07:13:36.324Z,37.40
2022-10-13T07:14:32.323Z,42.10
2022-10-13T07:15:32.319Z,40.80
2022-10-13T07:16:32.314Z,44.10
2022-10-13T07:17:32.297Z,45.00
2022-10-13T07:18:32.289Z,44.90
2022-10-13T07:19:32.374Z,44.90
2022-10-13T07:20:32.259Z,43.70
2022-10-13T07:21:32.235Z,42.20
2022-10-13T07:22:32.225Z,42.00
2022-10-13T07:23:32.220Z,42.70
2022-10-13T07:24:32.221Z,42.80
2022-10-13T07:25:32.286Z,46.20
2022-10-13T07:26:32.166Z,43.80
2022-10-13T07:27:32.162Z,44.60
2022-10-13T07:28:32.194Z,44.90
2022-10-13T07:29:32.141Z,41.50
2022-10-13T07:30:32.132Z,39.00
2022-10-13T07:31:32.134Z,44.10
2022-10-13T07:32:32.113Z,41.00
2022-10-13T07:33:32.068Z,43.40
2022-10-13T07:34:32.072Z,43.80
2022-10-13T07:35:32.063Z,42.40
2022-10-13T07:36:32.040Z,39.40
2022-10-13T07:37:32.142Z,44.60
2022-10-13T07:38:32.023Z,45.50
2022-10-13T07:39:31.990Z,44.10
2022-10-13T07:40:31.996Z,39.40
2022-10-13T07:41:31.961Z,41.00
2022-10-13T07:42:31.952Z,39.40
2022-10-13T07:43:32.055Z,39.00
2022-10-13T07:44:31.931Z,44.20
2022-10-13T07:45:31.924Z,41.90
2022-10-13T07:46:31.916Z,43.20
2022-10-13T07:47:31.882Z,39.00
2022-10-13T07:48:31.895Z,46.20
2022-10-13T07:49:31.962Z,43.00
2022-10-13T07:50:31.843Z,39.50
2022-10-13T07:51:31.840Z,42.20
2022-10-13T07:52:31.814Z,44.20
2022-10-13T07:53:31.808Z,41.80
2022-10-13T07:54:31.807Z,36.90
2022-10-13T07:55:31.935Z,41.20
2022-10-13T07:56:31.765Z,36.90
2022-10-13T07:57:31.761Z,36.00
2022-10-13T07:58:31.751Z,43.30
2022-10-13T07:59:31.716Z,39.40
2022-10-13T08:00:31.720Z,40.20
2022-10-13T08:01:31.795Z,40.40
2022-10-13T08:02:31.677Z,38.40
2022-10-13T08:03:31.718Z,40.50
2022-10-13T08:04:31.659Z,38.30
2022-10-13T08:05:31.650Z,41.30
2022-10-13T08:06:31.695Z,38.70
2022-10-13T08:07:31.729Z,38.20
2022-10-13T08:08:31.615Z,38.70
2022-10-13T08:09:31.587Z,37.60
2022-10-13T08:10:31.579Z,34.60
2022-10-13T08:11:31.572Z,37.40
2022-10-13T08:12:31.564Z,36.60
2022-10-13T08:13:31.588Z,39.60
2022-10-13T08:14:31.620Z,35.20
2022-10-13T08:15:31.514Z,34.10
2022-10-13T08:16:31.499Z,37.20
2022-10-13T08:17:31.493Z,33.50
2022-10-13T08:18:31.483Z,34.70
2022-10-13T08:19:31.482Z,38.70
2022-10-13T08:20:41.034Z,36.10
2022-10-13T08:21:57.069Z,38.60
2022-10-13T08:22:32.413Z,41.90
2022-10-13T08:23:31.408Z,36.10
2022-10-13T08:24:31.385Z,48.10
2022-10-13T08:25:31.417Z,35.20
2022-10-13T08:26:31.376Z,34.30
2022-10-13T08:27:49.561Z,35.50
2022-10-13T08:28:32.372Z,32.40
2022-10-13T08:29:31.379Z,33.60
2022-10-13T08:30:31.448Z,31.10
2022-10-13T08:31:31.640Z,33.70
2022-10-13T08:32:31.304Z,33.10
2022-10-13T08:33:31.265Z,29.00
2022-10-13T08:34:31.272Z,28.80
2022-10-13T08:35:34.890Z,35.40
2022-10-13T08:36:31.247Z,31.70
2022-10-13T08:37:31.251Z,32.50
2022-10-13T08:38:31.221Z,31.80
2022-10-13T08:39:31.178Z,31.30
2022-10-13T08:40:31.192Z,31.00
2022-10-13T08:41:31.159Z,30.70
2022-10-13T08:42:31.150Z,30.80
2022-10-13T08:43:31.173Z,28.60
2022-10-13T08:45:10.486Z,31.60
2022-10-13T08:45:47.431Z,31.40
2022-10-13T08:46:32.091Z,28.80
2022-10-13T08:47:31.094Z,31.20
2022-10-13T08:48:31.061Z,28.50
2022-10-13T08:49:31.184Z,26.50
2022-10-13T08:50:31.045Z,29.60
2022-10-13T08:51:31.051Z,29.40
2022-10-13T08:52:31.026Z,28.50
2022-10-13T08:53:31.008Z,32.20
2022-10-13T08:54:30.983Z,27.10
2022-10-13T08:55:31.097Z,28.40
2022-10-13T08:56:30.955Z,30.80
2022-10-13T08:57:30.968Z,31.20
2022-10-13T08:58:30.948Z,25.60
2022-10-13T08:59:30.923Z,30.40
2022-10-13T09:00:30.908Z,26.70
2022-10-13T09:01:30.965Z,28.70
2022-10-13T09:02:30.891Z,28.60
2022-10-13T09:03:30.869Z,31.30
2022-10-13T09:04:30.859Z,29.30
2022-10-13T09:05:30.845Z,30.50
2022-10-13T09:06:30.827Z,30.60
2022-10-13T09:07:30.941Z,32.90
2022-10-13T09:08:30.797Z,27.80
2022-10-13T09:09:30.803Z,30.20
2022-10-13T09:10:30.782Z,31.20
2022-10-13T09:11:30.768Z,31.90
2022-10-13T09:12:30.761Z,31.70
2022-10-13T09:13:30.759Z,33.00
2022-10-13T09:14:30.719Z,27.20
2022-10-13T09:15:30.722Z,29.10
2022-10-13T09:16:30.703Z,27.00
2022-10-13T09:17:30.681Z,27.80
2022-10-13T09:18:30.666Z,29.70
2022-10-13T09:19:30.785Z,25.20
2022-10-13T09:20:30.633Z,27.80
2022-10-13T09:21:30.644Z,28.00
2022-10-13T09:22:30.625Z,28.30
2022-10-13T09:23:30.602Z,27.90
2022-10-13T09:24:30.601Z,27.60
2022-10-13T09:25:30.600Z,24.90
2022-10-13T09:26:30.564Z,24.90
2022-10-13T09:27:30.567Z,25.90
2022-10-13T09:28:30.573Z,23.50
2022-10-13T09:29:30.537Z,28.60
2022-10-13T09:30:30.519Z,27.10
2022-10-13T09:31:30.525Z,26.30
2022-10-13T09:32:30.490Z,25.00
2022-10-13T09:33:30.480Z,23.30
2022-10-13T09:34:30.460Z,25.40
2022-10-13T09:35:30.436Z,24.70
2022-10-13T09:36:30.431Z,24.00
2022-10-13T09:37:30.525Z,21.70
2022-10-13T09:38:30.422Z,24.20
2022-10-13T09:39:30.409Z,27.60
2022-10-13T09:40:30.390Z,27.90
2022-10-13T09:41:30.372Z,29.10
2022-10-13T09:42:30.353Z,24.80
2022-10-13T09:43:30.439Z,24.90
2022-10-13T09:44:30.323Z,28.00
2022-10-13T09:45:30.318Z,23.00
2022-10-13T09:46:30.290Z,25.10
2022-10-13T09:47:30.296Z,26.90
2022-10-13T09:48:30.262Z,24.10
2022-10-13T09:49:30.383Z,26.60
2022-10-13T09:50:30.245Z,25.20
2022-10-13T09:51:30.224Z,28.90
2022-10-13T09:52:30.218Z,27.60
2022-10-13T09:53:30.201Z,24.90
2022-10-13T09:54:30.182Z,27.20
2022-10-13T09:55:32.656Z,22.00
2022-10-13T09:56:30.155Z,21.70
2022-10-13T09:57:30.158Z,24.90
2022-10-13T09:58:30.139Z,24.40
2022-10-13T09:59:30.118Z,23.20
2022-10-13T10:00:30.123Z,22.60
2022-10-13T10:01:30.116Z,24.20
2022-10-13T10:02:30.337Z,21.60
2022-10-13T10:03:30.081Z,23.20
2022-10-13T10:04:30.115Z,26.70
2022-10-13T10:05:30.038Z,22.90
2022-10-13T10:06:30.020Z,25.40
2022-10-13T10:07:30.139Z,24.30
2022-10-13T10:08:33.752Z,24.90
2022-10-13T10:09:30.993Z,22.70
2022-10-13T10:10:29.973Z,26.90
2022-10-13T10:11:29.957Z,25.90
2022-10-13T10:12:29.951Z,21.90
2022-10-13T10:13:29.961Z,27.50
2022-10-13T10:14:29.913Z,28.60
2022-10-13T10:15:29.917Z,21.80
2022-10-13T10:16:29.882Z,21.10
2022-10-13T10:17:29.893Z,25.10
2022-10-13T10:18:29.877Z,25.30
2022-10-13T10:19:29.954Z,22.80
2022-10-13T10:20:29.845Z,24.30
2022-10-13T10:21:29.837Z,23.30
2022-10-13T10:22:29.820Z,25.10
2022-10-13T10:23:29.805Z,22.10
2022-10-13T10:24:29.789Z,21.60
2022-10-13T10:25:29.932Z,21.40
2022-10-13T10:26:32.745Z,23.60
2022-10-13T10:27:29.759Z,21.20
2022-10-13T10:28:29.755Z,23.70
2022-10-13T10:29:29.730Z,22.70
2022-10-13T10:30:29.710Z,21.60
2022-10-13T10:31:29.797Z,24.30
2022-10-13T10:32:29.688Z,24.30
2022-10-13T10:33:29.666Z,22.70
2022-10-13T10:34:29.648Z,25.20
2022-10-13T10:35:29.652Z,24.40
2022-10-13T10:36:29.638Z,22.50
2022-10-13T10:37:29.648Z,27.90
2022-10-13T10:38:29.590Z,20.80
2022-10-13T10:39:29.600Z,23.00
2022-10-13T10:40:29.562Z,22.30
2022-10-13T10:41:29.585Z,23.10
2022-10-13T10:42:29.552Z,21.30
2022-10-13T10:43:29.559Z,22.50
2022-10-13T10:44:29.525Z,25.00
2022-10-13T10:45:29.502Z,23.90
2022-10-13T10:46:29.487Z,25.20
2022-10-13T10:47:30.106Z,23.00
2022-10-13T10:48:29.453Z,26.40
2022-10-13T10:49:29.578Z,22.60
2022-10-13T10:50:29.447Z,22.00
2022-10-13T10:51:29.425Z,20.70
2022-10-13T10:52:29.418Z,23.10
2022-10-13T10:53:29.396Z,20.10
2022-10-13T10:54:29.376Z,20.60
2022-10-13T10:55:29.499Z,22.80
2022-10-13T10:56:29.355Z,20.70
2022-10-13T10:57:29.453Z,23.70
2022-10-13T10:58:29.341Z,21.10
2022-10-13T10:59:29.328Z,23.70
2022-10-13T11:00:29.316Z,23.10
2022-10-13T11:01:29.480Z,20.10
2022-10-13T11:02:29.290Z,21.20
2022-10-13T11:03:29.291Z,23.90
2022-10-13T11:04:29.250Z,21.70
2022-10-13T11:05:29.295Z,24.10
2022-10-13T11:06:29.234Z,22.20
2022-10-13T11:07:29.321Z,21.40
2022-10-13T11:08:29.191Z,19.40
2022-10-13T11:09:29.202Z,23.50
2022-10-13T11:10:29.184Z,19.50
2022-10-13T11:11:33.443Z,25.50
2022-10-13T11:12:30.177Z,21.80
2022-10-13T11:13:29.132Z,18.50
2022-10-13T11:14:29.121Z,20.70
2022-10-13T11:15:29.117Z,20.20
2022-10-13T11:16:29.103Z,22.30
2022-10-13T11:17:29.095Z,22.50
2022-10-13T11:18:29.186Z,21.90
2022-10-13T11:19:29.057Z,22.80
2022-10-13T11:20:29.049Z,20.10
2022-10-13T11:21:29.026Z,22.90
2022-10-13T11:22:29.005Z,19.60
2022-10-13T11:23:29.010Z,21.70
2022-10-13T11:24:29.017Z,24.00
2022-10-13T11:25:28.974Z,15.60
2022-10-13T11:26:28.959Z,22.20
2022-10-13T11:27:28.962Z,22.80
2022-10-13T11:28:28.973Z,22.30
2022-10-13T11:29:28.932Z,21.30
2022-10-13T11:31:33.479Z,22.50
2022-10-13T11:32:29.885Z,23.60
2022-10-13T11:33:28.868Z,26.70
2022-10-13T11:34:28.843Z,24.30
2022-10-13T11:35:28.851Z,22.90
2022-10-13T11:36:28.935Z,24.20
2022-10-13T11:37:28.825Z,24.40
2022-10-13T11:38:28.807Z,23.60
2022-10-13T11:39:28.868Z,22.80
2022-10-13T11:40:28.809Z,26.70
2022-10-13T11:41:28.767Z,26.60
2022-10-13T11:42:28.777Z,28.90
2022-10-13T11:43:28.732Z,24.20
2022-10-13T11:45:28.708Z,23.90
2022-10-13T11:46:28.691Z,23.50
2022-10-13T11:47:28.695Z,27.50
2022-10-13T11:48:28.722Z,27.20
2022-10-13T11:49:28.684Z,26.20
2022-10-13T11:50:28.663Z,26.70
2022-10-13T11:51:28.618Z,29.90
2022-10-13T11:52:28.620Z,26.60
2022-10-13T11:53:28.597Z,23.50
2022-10-13T11:54:28.695Z,26.30
2022-10-13T11:55:28.582Z,24.50
2022-10-13T11:56:28.548Z,23.40
2022-10-13T11:57:28.572Z,25.10
2022-10-13T11:58:28.534Z,25.70
2022-10-13T11:59:28.514Z,28.90
2022-10-13T12:00:28.524Z,27.30
2022-10-13T12:01:28.484Z,22.60
2022-10-13T12:02:28.501Z,28.30
2022-10-13T12:03:28.474Z,25.60
2022-10-13T12:04:28.469Z,28.60
2022-10-13T12:05:28.449Z,27.10
2022-10-13T12:06:28.468Z,25.60
2022-10-13T12:07:28.403Z,29.20
2022-10-13T12:08:28.397Z,26.80
2022-10-13T12:09:28.374Z,29.40
2022-10-13T12:10:28.355Z,29.10
2022-10-13T12:11:28.368Z,30.50
2022-10-13T12:12:28.459Z,30.20
2022-10-13T12:13:28.330Z,23.50
2022-10-13T12:14:28.366Z,27.40
2022-10-13T12:15:28.309Z,29.80
2022-10-13T12:16:28.275Z,27.50
2022-10-13T12:17:28.565Z,29.00
2022-10-13T12:18:28.380Z,25.70
2022-10-13T12:19:28.237Z,27.30
2022-10-13T12:20:28.238Z,28.20
2022-10-13T12:21:28.218Z,26.40
2022-10-13T12:22:28.197Z,25.20
2022-10-13T12:23:28.202Z,30.60
2022-10-13T12:24:28.279Z,26.60
2022-10-13T12:25:28.173Z,27.20
2022-10-13T12:26:28.154Z,25.50
2022-10-13T12:27:28.130Z,25.90
2022-10-13T12:28:28.135Z,29.70
2022-10-13T12:29:28.887Z,24.20
2022-10-13T12:30:28.211Z,24.40
2022-10-13T12:31:28.081Z,32.80
2022-10-13T12:32:28.085Z,26.50
2022-10-13T12:33:28.053Z,27.70
2022-10-13T12:34:28.052Z,29.10
2022-10-13T12:35:28.053Z,26.80
2022-10-13T12:36:30.133Z,26.90
2022-10-13T12:37:28.007Z,25.60
2022-10-13T12:38:27.988Z,29.00
2022-10-13T12:39:27.984Z,27.60
2022-10-13T12:40:27.961Z,29.60
2022-10-13T12:41:27.947Z,27.40
2022-10-13T12:42:28.035Z,28.80
2022-10-13T12:43:27.949Z,31.90
2022-10-13T12:44:27.910Z,29.70
2022-10-13T12:45:27.886Z,25.50
2022-10-13T12:46:27.866Z,30.80
2022-10-13T12:47:27.870Z,31.20
2022-10-13T12:48:27.956Z,25.60
2022-10-13T12:49:27.859Z,24.70
2022-10-13T12:50:27.837Z,28.90
2022-10-13T12:51:27.840Z,24.20
2022-10-13T12:52:27.801Z,25.90
2022-10-13T12:53:27.779Z,23.30
2022-10-13T12:54:27.790Z,32.00
2022-10-13T12:55:27.765Z,30.00